createdAt,value
2023-01-13T00:00:27.504Z,984.81
2023-01-13T00:01:29.333Z,984.84
2023-01-13T00:02:30.932Z,984.8
2023-01-13T00:03:32.630Z,984.78
2023-01-13T00:04:34.415Z,984.77
2023-01-13T00:05:36.095Z,984.78
2023-01-13T00:06:37.831Z,984.71
2023-01-13T00:07:39.565Z,984.73
2023-01-13T00:08:41.298Z,984.67
2023-01-13T00:09:44.341Z,984.67
2023-01-13T00:10:44.812Z,984.71
2023-01-13T00:11:46.525Z,984.68
2023-01-13T00:12:48.252Z,984.67
2023-01-13T00:13:49.993Z,984.7
2023-01-13T00:14:51.733Z,984.63
2023-01-13T00:15:53.463Z,984.63
2023-01-13T00:16:55.174Z,984.64
2023-01-13T00:17:56.897Z,984.61
2023-01-13T00:18:58.625Z,984.65
2023-01-13T00:20:00.386Z,984.66
2023-01-13T00:21:02.203Z,984.61
2023-01-13T00:22:03.865Z,984.62
2023-01-13T00:23:05.556Z,984.65
2023-01-13T00:24:07.293Z,984.65
2023-01-13T00:25:09.030Z,984.66
2023-01-13T00:26:10.780Z,984.65
2023-01-13T00:27:12.497Z,984.6
2023-01-13T00:28:14.234Z,984.63
2023-01-13T00:29:15.957Z,984.68
2023-01-13T00:30:17.698Z,984.59
2023-01-13T00:31:19.589Z,984.61
2023-01-13T00:32:21.168Z,984.63
2023-01-13T00:33:22.938Z,984.65
2023-01-13T00:34:24.637Z,984.65
2023-01-13T00:35:26.365Z,984.59
2023-01-13T00:36:28.129Z,984.64
2023-01-13T00:37:29.753Z,984.58
2023-01-13T00:38:31.466Z,984.65
2023-01-13T00:39:33.194Z,984.6
2023-01-13T00:40:34.929Z,984.57
2023-01-13T00:41:36.691Z,984.51
2023-01-13T00:42:38.429Z,984.54
2023-01-13T00:43:40.161Z,984.52
2023-01-13T00:44:41.845Z,984.5
2023-01-13T00:45:43.588Z,984.5
2023-01-13T00:46:45.394Z,984.39
2023-01-13T00:47:47.101Z,984.38
2023-01-13T00:48:48.810Z,984.42
2023-01-13T00:49:50.567Z,984.34
2023-01-13T00:50:52.263Z,984.41
2023-01-13T00:51:53.991Z,984.38
2023-01-13T00:52:55.736Z,984.38
2023-01-13T00:53:57.488Z,984.37
2023-01-13T00:54:59.222Z,984.37
2023-01-13T00:56:00.972Z,984.32
2023-01-13T00:57:02.691Z,984.3
2023-01-13T00:58:04.421Z,984.3
2023-01-13T00:59:06.123Z,984.3
2023-01-13T01:00:07.866Z,984.29
2023-01-13T01:01:09.800Z,984.24
2023-01-13T01:02:11.495Z,984.26
2023-01-13T01:03:13.093Z,984.3
2023-01-13T01:04:14.805Z,984.31
2023-01-13T01:05:16.577Z,984.26
2023-01-13T01:06:18.284Z,984.36
2023-01-13T01:07:20.015Z,984.33
2023-01-13T01:08:21.767Z,984.33
2023-01-13T01:09:23.503Z,984.34
2023-01-13T01:10:25.234Z,984.36
2023-01-13T01:11:26.994Z,984.34
2023-01-13T01:12:28.701Z,984.22
2023-01-13T01:13:30.414Z,984.35
2023-01-13T01:14:32.134Z,984.35
2023-01-13T01:15:33.959Z,984.29
2023-01-13T01:16:35.650Z,984.31
2023-01-13T01:17:37.354Z,984.25
2023-01-13T01:18:39.105Z,984.31
2023-01-13T01:19:40.835Z,984.32
2023-01-13T01:20:42.559Z,984.24
2023-01-13T01:21:44.274Z,984.32
2023-01-13T01:22:46.000Z,984.28
2023-01-13T01:23:47.754Z,984.3
2023-01-13T01:24:49.481Z,984.29
2023-01-13T01:25:51.246Z,984.25
2023-01-13T01:26:52.976Z,984.29
2023-01-13T01:27:54.709Z,984.31
2023-01-13T01:28:56.443Z,984.28
2023-01-13T01:29:58.144Z,984.29
2023-01-13T01:30:59.994Z,984.24
2023-01-13T01:32:01.633Z,984.25
2023-01-13T01:33:03.347Z,984.3
2023-01-13T01:34:05.083Z,984.21
2023-01-13T01:35:06.830Z,984.27
2023-01-13T01:36:08.537Z,984.25
2023-01-13T01:37:10.301Z,984.22
2023-01-13T01:38:12.018Z,984.26
2023-01-13T01:39:13.765Z,984.21
2023-01-13T01:40:15.509Z,984.2
2023-01-13T01:41:17.221Z,984.27
2023-01-13T01:42:18.940Z,984.24
2023-01-13T01:43:20.717Z,984.14
2023-01-13T01:44:22.445Z,984.11
2023-01-13T01:45:24.192Z,984.17
2023-01-13T01:46:26.004Z,984.13
2023-01-13T01:47:27.615Z,984.1
2023-01-13T01:48:29.350Z,984.15
2023-01-13T01:49:31.083Z,984.13
2023-01-13T01:50:32.860Z,984.18
2023-01-13T01:51:34.553Z,984.16
2023-01-13T01:52:36.402Z,984.09
2023-01-13T01:53:38.006Z,984.14
2023-01-13T01:54:39.784Z,984.13
2023-01-13T01:55:41.520Z,984.13
2023-01-13T01:56:43.211Z,984.06
2023-01-13T01:57:44.947Z,984.08
2023-01-13T01:58:46.719Z,984.07
2023-01-13T01:59:48.421Z,984.04
2023-01-13T02:00:50.170Z,984.04
2023-01-13T02:01:51.972Z,984.08
2023-01-13T02:02:53.667Z,984.04
2023-01-13T02:03:55.385Z,984.03
2023-01-13T02:04:57.137Z,984.05
2023-01-13T02:05:58.818Z,984
2023-01-13T02:07:00.597Z,984.01
2023-01-13T02:08:02.320Z,984
2023-01-13T02:09:04.067Z,984
2023-01-13T02:10:05.773Z,983.99
2023-01-13T02:11:07.491Z,984.01
2023-01-13T02:12:09.258Z,983.93
2023-01-13T02:13:10.970Z,983.95
2023-01-13T02:14:12.685Z,983.96
2023-01-13T02:15:14.444Z,983.99
2023-01-13T02:16:16.176Z,983.98
2023-01-13T02:17:17.915Z,983.97
2023-01-13T02:18:19.659Z,983.93
2023-01-13T02:19:21.383Z,983.9
2023-01-13T02:20:23.117Z,983.92
2023-01-13T02:21:24.834Z,983.95
2023-01-13T02:22:26.554Z,983.88
2023-01-13T02:23:28.297Z,983.86
2023-01-13T02:24:30.061Z,983.86
2023-01-13T02:25:31.768Z,983.89
2023-01-13T02:26:33.496Z,983.81
2023-01-13T02:27:35.220Z,983.83
2023-01-13T02:28:36.995Z,983.85
2023-01-13T02:29:38.684Z,983.82
2023-01-13T02:30:40.426Z,983.86
2023-01-13T02:31:42.312Z,983.81
2023-01-13T02:32:43.928Z,983.85
2023-01-13T02:33:45.640Z,983.85
2023-01-13T02:34:47.357Z,983.82
2023-01-13T02:35:49.104Z,983.82
2023-01-13T02:36:50.834Z,983.78
2023-01-13T02:37:52.616Z,983.71
2023-01-13T02:38:54.360Z,983.72
2023-01-13T02:39:56.023Z,983.69
2023-01-13T02:40:57.823Z,983.71
2023-01-13T02:41:59.513Z,983.68
2023-01-13T02:43:01.266Z,983.67
2023-01-13T02:44:02.975Z,983.62
2023-01-13T02:45:04.716Z,983.61
2023-01-13T02:46:06.492Z,983.59
2023-01-13T02:47:08.182Z,983.53
2023-01-13T02:48:09.915Z,983.58
2023-01-13T02:49:11.677Z,983.57
2023-01-13T02:50:13.385Z,983.61
2023-01-13T02:51:15.161Z,983.55
2023-01-13T02:52:16.854Z,983.51
2023-01-13T02:53:18.582Z,983.52
2023-01-13T02:54:20.354Z,983.57
2023-01-13T02:55:22.087Z,983.55
2023-01-13T02:56:23.801Z,983.55
2023-01-13T02:57:25.553Z,983.54
2023-01-13T02:58:27.286Z,983.51
2023-01-13T02:59:28.981Z,983.54
2023-01-13T03:00:30.731Z,983.58
2023-01-13T03:01:32.619Z,983.54
2023-01-13T03:02:34.287Z,983.51
2023-01-13T03:03:35.970Z,983.5
2023-01-13T03:04:37.863Z,983.5
2023-01-13T03:05:39.416Z,983.46
2023-01-13T03:06:41.163Z,983.52
2023-01-13T03:07:42.881Z,983.52
2023-01-13T03:08:44.637Z,983.46
2023-01-13T03:09:46.328Z,983.48
2023-01-13T03:10:48.083Z,983.49
2023-01-13T03:11:49.838Z,983.48
2023-01-13T03:12:51.534Z,983.47
2023-01-13T03:13:53.263Z,983.49
2023-01-13T03:14:54.994Z,983.43
2023-01-13T03:15:56.753Z,983.46
2023-01-13T03:16:58.518Z,983.42
2023-01-13T03:18:00.229Z,983.36
2023-01-13T03:19:01.933Z,983.43
2023-01-13T03:20:03.672Z,983.43
2023-01-13T03:21:05.393Z,983.37
2023-01-13T03:22:07.159Z,983.38
2023-01-13T03:23:08.905Z,983.36
2023-01-13T03:24:10.604Z,983.41
2023-01-13T03:25:12.371Z,983.38
2023-01-13T03:26:14.104Z,983.35
2023-01-13T03:27:15.856Z,983.32
2023-01-13T03:28:17.537Z,983.35
2023-01-13T03:29:19.299Z,983.31
2023-01-13T03:30:21.023Z,983.25
2023-01-13T03:31:22.745Z,983.21
2023-01-13T03:32:24.481Z,983.24
2023-01-13T03:33:26.251Z,983.24
2023-01-13T03:34:29.725Z,983.24
2023-01-13T03:35:29.707Z,983.23
2023-01-13T03:36:31.424Z,983.17
2023-01-13T03:37:33.231Z,983.19
2023-01-13T03:38:34.889Z,983.21
2023-01-13T03:39:36.648Z,983.23
2023-01-13T03:40:38.346Z,983.15
2023-01-13T03:41:40.078Z,983.18
2023-01-13T03:42:41.844Z,983.16
2023-01-13T03:43:43.535Z,983.17
2023-01-13T03:44:45.324Z,983.16
2023-01-13T03:45:47.057Z,983.16
2023-01-13T03:46:48.750Z,983.14
2023-01-13T03:47:50.510Z,983.16
2023-01-13T03:48:52.249Z,983.16
2023-01-13T03:49:53.982Z,983.16
2023-01-13T03:50:55.714Z,983.15
2023-01-13T03:51:57.436Z,983.14
2023-01-13T03:52:59.184Z,983.15
2023-01-13T03:54:00.885Z,983.15
2023-01-13T03:55:02.614Z,983.1
2023-01-13T03:56:04.345Z,983.11
2023-01-13T03:57:06.109Z,983.12
2023-01-13T03:58:07.919Z,983.12
2023-01-13T03:59:09.559Z,983.12
2023-01-13T04:00:11.282Z,983.13
2023-01-13T04:01:13.107Z,983.09
2023-01-13T04:02:14.830Z,983.05
2023-01-13T04:03:16.517Z,983.07
2023-01-13T04:04:18.260Z,983.06
2023-01-13T04:05:19.994Z,982.98
2023-01-13T04:06:21.694Z,983.09
2023-01-13T04:07:23.459Z,983.06
2023-01-13T04:08:25.168Z,983.04
2023-01-13T04:09:26.891Z,983.11
2023-01-13T04:10:28.639Z,983.04
2023-01-13T04:11:30.366Z,983.03
2023-01-13T04:12:32.135Z,983.04
2023-01-13T04:13:33.877Z,982.94
2023-01-13T04:14:35.595Z,983.01
2023-01-13T04:15:37.420Z,982.97
2023-01-13T04:16:39.058Z,983
2023-01-13T04:17:40.805Z,982.98
2023-01-13T04:18:42.498Z,982.94
2023-01-13T04:19:44.229Z,982.91
2023-01-13T04:20:46.015Z,982.91
2023-01-13T04:21:47.703Z,982.88
2023-01-13T04:22:49.467Z,982.87
2023-01-13T04:23:51.209Z,982.9
2023-01-13T04:24:52.899Z,982.88
2023-01-13T04:25:54.664Z,982.91
2023-01-13T04:26:56.390Z,982.85
2023-01-13T04:27:58.100Z,982.9
2023-01-13T04:28:59.887Z,982.91
2023-01-13T04:30:01.578Z,982.95
2023-01-13T04:31:03.368Z,982.94
2023-01-13T04:32:05.042Z,983
2023-01-13T04:33:06.760Z,982.93
2023-01-13T04:34:08.501Z,982.93
2023-01-13T04:35:10.248Z,982.91
2023-01-13T04:36:11.974Z,982.91
2023-01-13T04:37:13.723Z,982.94
2023-01-13T04:38:15.554Z,982.89
2023-01-13T04:39:17.160Z,982.86
2023-01-13T04:40:18.902Z,982.92
2023-01-13T04:41:20.635Z,982.86
2023-01-13T04:42:22.376Z,982.87
2023-01-13T04:43:24.193Z,982.88
2023-01-13T04:44:25.868Z,982.9
2023-01-13T04:45:27.584Z,982.92
2023-01-13T04:46:29.398Z,982.86
2023-01-13T04:47:31.043Z,982.89
2023-01-13T04:48:32.830Z,982.87
2023-01-13T04:49:34.548Z,982.83
2023-01-13T04:50:36.268Z,982.78
2023-01-13T04:51:37.983Z,982.88
2023-01-13T04:52:39.736Z,982.81
2023-01-13T04:53:41.449Z,982.78
2023-01-13T04:54:43.211Z,982.84
2023-01-13T04:55:44.939Z,982.81
2023-01-13T04:56:46.641Z,982.81
2023-01-13T04:57:48.387Z,982.81
2023-01-13T04:58:50.100Z,982.82
2023-01-13T04:59:51.861Z,982.83
2023-01-13T05:00:53.788Z,982.86
2023-01-13T05:01:55.501Z,982.83
2023-01-13T05:02:57.079Z,982.84
2023-01-13T05:03:58.815Z,982.88
2023-01-13T05:05:00.600Z,982.93
2023-01-13T05:06:02.229Z,982.87
2023-01-13T05:07:04.004Z,982.86
2023-01-13T05:08:05.740Z,982.93
2023-01-13T05:09:07.465Z,982.97
2023-01-13T05:10:09.193Z,983
2023-01-13T05:11:10.910Z,983.01
2023-01-13T05:12:12.661Z,983.03
2023-01-13T05:13:14.386Z,983.02
2023-01-13T05:14:16.113Z,983.1
2023-01-13T05:15:17.874Z,983.17
2023-01-13T05:16:19.641Z,983.17
2023-01-13T05:17:21.323Z,983.16
2023-01-13T05:18:23.072Z,983.29
2023-01-13T05:19:24.771Z,983.34
2023-01-13T05:20:26.546Z,983.38
2023-01-13T05:21:28.308Z,983.44
2023-01-13T05:22:29.980Z,983.4
2023-01-13T05:23:31.788Z,983.51
2023-01-13T05:24:33.448Z,983.49
2023-01-13T05:25:35.161Z,983.49
2023-01-13T05:26:36.940Z,983.54
2023-01-13T05:27:38.658Z,983.53
2023-01-13T05:28:40.405Z,983.56
2023-01-13T05:29:42.152Z,983.57
2023-01-13T05:30:43.843Z,983.5
2023-01-13T05:31:45.619Z,983.53
2023-01-13T05:32:47.309Z,983.58
2023-01-13T05:33:49.052Z,983.63
2023-01-13T05:34:50.804Z,983.6
2023-01-13T05:35:52.550Z,983.6
2023-01-13T05:36:54.292Z,983.59
2023-01-13T05:37:56.005Z,983.59
2023-01-13T05:38:57.737Z,983.61
2023-01-13T05:39:59.480Z,983.59
2023-01-13T05:41:01.196Z,983.57
2023-01-13T05:42:02.923Z,983.57
2023-01-13T05:43:04.690Z,983.55
2023-01-13T05:44:06.375Z,983.59
2023-01-13T05:45:08.108Z,983.63
2023-01-13T05:46:09.972Z,983.59
2023-01-13T05:47:11.588Z,983.66
2023-01-13T05:48:13.309Z,983.74
2023-01-13T05:49:15.096Z,983.75
2023-01-13T05:50:16.805Z,983.74
2023-01-13T05:51:18.509Z,983.83
2023-01-13T05:52:20.291Z,983.83
2023-01-13T05:53:22.019Z,983.87
2023-01-13T05:54:23.714Z,983.85
2023-01-13T05:55:25.443Z,983.94
2023-01-13T05:56:27.228Z,983.88
2023-01-13T05:57:28.907Z,983.89
2023-01-13T05:58:30.654Z,983.82
2023-01-13T05:59:32.380Z,983.87
2023-01-13T06:00:34.102Z,983.95
2023-01-13T06:01:35.932Z,983.9
2023-01-13T06:02:37.716Z,983.92
2023-01-13T06:03:39.356Z,983.94
2023-01-13T06:04:42.155Z,983.96
2023-01-13T06:05:42.784Z,983.98
2023-01-13T06:06:44.527Z,984.08
2023-01-13T06:07:46.253Z,984.04
2023-01-13T06:08:48.001Z,984.06
2023-01-13T06:09:49.713Z,984.13
2023-01-13T06:10:50.230Z,984.15
2023-01-13T06:11:50.800Z,984.16
2023-01-13T06:13:00.741Z,984.15
2023-01-13T06:14:10.240Z,984.15
2023-01-13T06:15:12.011Z,984.16
2023-01-13T06:16:13.768Z,984.07
2023-01-13T06:17:15.418Z,984.03
2023-01-13T06:18:17.114Z,984.03
2023-01-13T06:19:18.844Z,983.96
2023-01-13T06:20:20.622Z,983.91
2023-01-13T06:21:22.335Z,983.91
2023-01-13T06:22:24.021Z,983.86
2023-01-13T06:23:25.738Z,983.86
2023-01-13T06:24:27.468Z,983.84
2023-01-13T06:25:29.235Z,983.82
2023-01-13T06:26:30.955Z,983.67
2023-01-13T06:27:32.674Z,983.6
2023-01-13T06:28:34.940Z,983.56
2023-01-13T06:29:36.113Z,983.56
2023-01-13T06:30:37.823Z,983.69
2023-01-13T06:31:39.628Z,983.76
2023-01-13T06:32:41.278Z,983.81
2023-01-13T06:33:43.001Z,983.8
2023-01-13T06:34:44.726Z,983.81
2023-01-13T06:35:46.469Z,983.9
2023-01-13T06:36:48.177Z,983.97
2023-01-13T06:37:49.908Z,983.99
2023-01-13T06:38:51.623Z,983.93
2023-01-13T06:39:53.338Z,983.95
2023-01-13T06:40:55.149Z,983.94
2023-01-13T06:41:56.785Z,983.91
2023-01-13T06:42:58.513Z,983.83
2023-01-13T06:44:00.276Z,983.81
2023-01-13T06:45:01.982Z,983.82
2023-01-13T06:46:03.721Z,983.77
2023-01-13T06:47:05.509Z,983.81
2023-01-13T06:48:07.178Z,983.8
2023-01-13T06:49:08.932Z,983.86
2023-01-13T06:50:10.810Z,983.89
2023-01-13T06:51:12.317Z,983.92
2023-01-13T06:52:14.156Z,983.8
2023-01-13T06:53:15.813Z,983.79
2023-01-13T06:54:18.877Z,983.79
2023-01-13T06:55:19.929Z,983.89
2023-01-13T06:56:22.113Z,983.99
2023-01-13T06:57:30.531Z,983.93
2023-01-13T06:58:32.391Z,983.92
2023-01-13T06:59:34.079Z,983.99
2023-01-13T07:00:36.821Z,983.91
2023-01-13T07:01:37.577Z,983.77
2023-01-13T07:02:39.349Z,983.84
2023-01-13T07:03:40.973Z,983.84
2023-01-13T07:04:42.719Z,983.88
2023-01-13T07:05:44.527Z,983.86
2023-01-13T07:06:46.214Z,983.89
2023-01-13T07:07:47.934Z,983.84
2023-01-13T07:08:49.637Z,983.83
2023-01-13T07:09:51.411Z,983.9
2023-01-13T07:12:14.593Z,983.89
2023-01-13T07:13:17.541Z,983.89
2023-01-13T07:14:18.031Z,983.88
2023-01-13T07:15:19.776Z,983.9
2023-01-13T07:16:21.555Z,983.95
2023-01-13T07:17:23.229Z,983.93
2023-01-13T07:18:24.978Z,983.98
2023-01-13T07:19:26.821Z,984.07
2023-01-13T07:20:30.368Z,984.07
2023-01-13T07:21:30.726Z,984.1
2023-01-13T07:23:10.398Z,984.15
2023-01-13T07:24:10.974Z,984.15
2023-01-13T07:25:31.347Z,984.23
2023-01-13T07:26:31.760Z,984.23
2023-01-13T07:27:34.719Z,984.28
2023-01-13T07:28:35.232Z,984.26
2023-01-13T07:29:37.573Z,984.33
2023-01-13T07:30:43.871Z,984.34
2023-01-13T07:31:44.987Z,984.33
2023-01-13T07:32:47.501Z,984.33
2023-01-13T07:35:43.901Z,984.35
2023-01-13T07:36:45.651Z,984.3
2023-01-13T07:37:47.396Z,984.33
2023-01-13T07:38:49.131Z,984.35
2023-01-13T07:39:51.890Z,984.42
2023-01-13T07:40:52.577Z,984.45
2023-01-13T07:41:54.344Z,984.51
2023-01-13T07:42:56.045Z,984.55
2023-01-13T07:43:57.772Z,984.5
2023-01-13T07:44:59.546Z,984.6
2023-01-13T07:46:01.355Z,984.64
2023-01-13T07:47:02.994Z,984.69
2023-01-13T07:48:04.675Z,984.68
2023-01-13T07:49:06.481Z,984.77
2023-01-13T07:50:08.164Z,984.77
2023-01-13T07:51:09.878Z,984.8
2023-01-13T07:52:11.623Z,984.78
2023-01-13T07:53:13.354Z,984.76
2023-01-13T07:54:19.343Z,984.83
2023-01-13T07:55:19.743Z,984.82
2023-01-13T07:56:21.418Z,984.83
2023-01-13T07:57:23.120Z,984.82
2023-01-13T07:58:24.856Z,984.87
2023-01-13T07:59:26.592Z,984.85
2023-01-13T08:00:28.366Z,984.84
2023-01-13T08:01:30.254Z,984.87
2023-01-13T08:02:31.960Z,984.9
2023-01-13T08:03:33.532Z,984.84
2023-01-13T08:04:35.261Z,984.89
2023-01-13T08:05:36.991Z,984.9
2023-01-13T08:06:38.766Z,984.86
2023-01-13T08:07:49.693Z,984.88
2023-01-13T08:09:43.709Z,984.91
2023-01-13T08:10:46.650Z,984.88
2023-01-13T08:11:47.141Z,984.9
2023-01-13T08:12:53.780Z,984.88
2023-01-13T08:13:55.758Z,984.94
2023-01-13T08:15:01.976Z,984.88
2023-01-13T08:16:04.330Z,984.9
2023-01-13T08:17:06.056Z,984.87
2023-01-13T08:18:07.752Z,984.9
2023-01-13T08:19:09.508Z,984.89
2023-01-13T08:20:11.194Z,984.93
2023-01-13T08:21:14.315Z,984.89
2023-01-13T08:22:14.708Z,984.98
2023-01-13T08:23:17.472Z,984.99
2023-01-13T08:24:18.232Z,984.98
2023-01-13T08:25:19.854Z,984.97
2023-01-13T08:26:21.621Z,985.03
2023-01-13T08:27:23.302Z,984.99
2023-01-13T08:28:25.026Z,985.03
2023-01-13T08:29:26.763Z,984.9
2023-01-13T08:30:28.737Z,985.02
2023-01-13T08:31:30.230Z,985.06
2023-01-13T08:32:31.968Z,985.05
2023-01-13T08:33:33.705Z,985.05
2023-01-13T08:34:35.431Z,985.02
2023-01-13T08:35:37.163Z,985.02
2023-01-13T08:36:38.875Z,985.05
2023-01-13T08:37:40.608Z,985.08
2023-01-13T08:38:42.324Z,985.09
2023-01-13T08:39:44.016Z,985.06
2023-01-13T08:40:45.751Z,985.07
2023-01-13T08:41:47.470Z,985.04
2023-01-13T08:42:49.233Z,985.07
2023-01-13T08:43:50.919Z,985.11
2023-01-13T08:44:52.640Z,985.12
2023-01-13T08:45:54.444Z,985.11
2023-01-13T08:46:56.131Z,985.15
2023-01-13T08:47:57.844Z,985.12
2023-01-13T08:48:59.569Z,985.18
2023-01-13T08:50:01.312Z,985.22
2023-01-13T08:51:03.023Z,985.21
2023-01-13T08:52:04.734Z,985.16
2023-01-13T08:53:06.515Z,985.2
2023-01-13T08:54:08.135Z,985.19
2023-01-13T08:55:09.865Z,985.18
2023-01-13T08:56:11.746Z,985.17
2023-01-13T08:57:13.423Z,985.2
2023-01-13T08:58:16.310Z,985.18
2023-01-13T08:59:16.855Z,985.16
2023-01-13T09:00:18.572Z,985.18
2023-01-13T09:01:20.457Z,985.16
2023-01-13T09:02:22.159Z,985.24
2023-01-13T09:03:25.119Z,985.24
2023-01-13T09:04:25.574Z,985.28
2023-01-13T09:05:27.221Z,985.29
2023-01-13T09:06:28.962Z,985.32
2023-01-13T09:07:30.717Z,985.33
2023-01-13T09:08:32.437Z,985.34
2023-01-13T09:09:34.257Z,985.28
2023-01-13T09:10:35.929Z,985.31
2023-01-13T09:11:37.628Z,985.3
2023-01-13T09:12:39.352Z,985.3
2023-01-13T09:13:41.053Z,985.31
2023-01-13T09:14:42.794Z,985.36
2023-01-13T09:15:44.607Z,985.32
2023-01-13T09:16:46.267Z,985.35
2023-01-13T09:17:47.957Z,985.39
2023-01-13T09:18:49.800Z,985.41
2023-01-13T09:19:51.402Z,985.46
2023-01-13T09:20:53.141Z,985.53
2023-01-13T09:21:54.895Z,985.52
2023-01-13T09:22:56.642Z,985.54
2023-01-13T09:23:58.348Z,985.53
2023-01-13T09:25:00.135Z,985.61
2023-01-13T09:26:01.810Z,985.63
2023-01-13T09:27:03.555Z,985.62
2023-01-13T09:28:05.286Z,985.7
2023-01-13T09:29:07.006Z,985.71
2023-01-13T09:30:08.786Z,985.66
2023-01-13T09:31:10.594Z,985.7
2023-01-13T09:32:12.213Z,985.68
2023-01-13T09:33:13.941Z,985.72
2023-01-13T09:34:15.693Z,985.75
2023-01-13T09:35:17.419Z,985.74
2023-01-13T09:36:19.150Z,985.72
2023-01-13T09:37:20.876Z,985.75
2023-01-13T09:38:22.707Z,985.71
2023-01-13T09:39:24.366Z,985.75
2023-01-13T09:40:26.079Z,985.75
2023-01-13T09:41:27.871Z,985.78
2023-01-13T09:42:29.596Z,985.75
2023-01-13T09:43:31.315Z,985.72
2023-01-13T09:44:33.010Z,985.78
2023-01-13T09:45:34.759Z,985.8
2023-01-13T09:46:36.583Z,985.81
2023-01-13T09:47:38.232Z,985.76
2023-01-13T09:48:39.963Z,985.68
2023-01-13T09:49:41.725Z,985.79
2023-01-13T09:50:43.427Z,985.78
2023-01-13T09:51:45.224Z,985.77
2023-01-13T09:52:46.904Z,985.71
2023-01-13T09:53:49.787Z,985.73
2023-01-13T09:54:50.370Z,985.75
2023-01-13T09:55:53.657Z,985.68
2023-01-13T09:56:53.838Z,985.64
2023-01-13T09:58:01.656Z,985.62
2023-01-13T09:59:07.377Z,985.6
2023-01-13T10:00:10.810Z,985.62
2023-01-13T10:01:11.133Z,985.66
2023-01-13T10:02:12.857Z,985.72
2023-01-13T10:03:14.559Z,985.76
2023-01-13T10:04:16.330Z,985.78
2023-01-13T10:05:17.975Z,985.83
2023-01-13T10:06:19.697Z,985.76
2023-01-13T10:07:24.497Z,985.84
2023-01-13T10:08:23.172Z,985.86
2023-01-13T10:09:25.010Z,985.86
2023-01-13T10:10:26.635Z,985.86
2023-01-13T10:11:28.363Z,985.84
2023-01-13T10:12:30.105Z,985.86
2023-01-13T10:13:31.844Z,985.91
2023-01-13T10:14:33.560Z,985.89
2023-01-13T10:15:35.301Z,985.92
2023-01-13T10:16:37.154Z,985.97
2023-01-13T10:17:38.814Z,985.9
2023-01-13T10:18:40.528Z,985.97
2023-01-13T10:19:42.321Z,985.94
2023-01-13T10:20:44.047Z,985.91
2023-01-13T10:21:45.799Z,985.89
2023-01-13T10:22:47.517Z,985.87
2023-01-13T10:23:49.247Z,985.88
2023-01-13T10:24:50.958Z,985.92
2023-01-13T10:25:52.719Z,985.91
2023-01-13T10:26:54.417Z,985.92
2023-01-13T10:27:56.218Z,985.97
2023-01-13T10:28:57.928Z,985.94
2023-01-13T10:29:59.629Z,985.95
2023-01-13T10:31:01.365Z,986.05
2023-01-13T10:32:03.111Z,986.05
2023-01-13T10:33:09.024Z,986.09
2023-01-13T10:34:13.171Z,986.09
2023-01-13T10:35:16.361Z,986.15
2023-01-13T10:36:20.278Z,986.16
2023-01-13T10:37:22.038Z,986.16
2023-01-13T10:38:23.756Z,986.25
2023-01-13T10:39:26.673Z,986.26
2023-01-13T10:40:27.206Z,986.22
2023-01-13T10:41:28.952Z,986.17
2023-01-13T10:42:30.718Z,986.24
2023-01-13T10:43:32.411Z,986.25
2023-01-13T10:44:34.121Z,986.22
2023-01-13T10:45:35.869Z,986.29
2023-01-13T10:46:37.621Z,986.29
2023-01-13T10:47:39.316Z,986.3
2023-01-13T10:48:41.081Z,986.29
2023-01-13T10:49:42.812Z,986.27
2023-01-13T10:50:44.542Z,986.24
2023-01-13T10:51:46.266Z,986.25
2023-01-13T10:52:47.995Z,986.25
2023-01-13T10:53:49.743Z,986.27
2023-01-13T10:54:51.538Z,986.19
2023-01-13T10:55:54.877Z,986.18
2023-01-13T10:56:54.922Z,986.15
2023-01-13T10:57:56.670Z,986.14
2023-01-13T10:58:58.392Z,986.13
2023-01-13T11:00:00.144Z,986.11
2023-01-13T11:01:02.031Z,986.13
2023-01-13T11:02:13.083Z,986.17
2023-01-13T11:03:05.365Z,986.07
2023-01-13T11:04:07.060Z,986.13
2023-01-13T11:05:08.904Z,986.08
2023-01-13T11:06:10.553Z,986.07
2023-01-13T11:07:12.294Z,986.03
2023-01-13T11:08:14.011Z,985.97
2023-01-13T11:09:21.089Z,986.04
2023-01-13T11:10:22.654Z,986
2023-01-13T11:11:24.431Z,986.05
2023-01-13T11:12:26.144Z,986.1
2023-01-13T11:13:27.846Z,985.9
2023-01-13T11:14:29.538Z,986.04
2023-01-13T11:15:31.361Z,985.96
2023-01-13T11:16:33.122Z,985.91
2023-01-13T11:17:34.763Z,985.97
2023-01-13T11:18:36.503Z,985.99
2023-01-13T11:19:38.202Z,985.96
2023-01-13T11:20:39.995Z,986.06
2023-01-13T11:21:41.687Z,986.05
2023-01-13T11:22:42.701Z,986.14
2023-01-13T11:23:45.131Z,986.03
2023-01-13T11:24:47.394Z,986
2023-01-13T11:25:48.622Z,986.05
2023-01-13T11:26:50.420Z,986.07
2023-01-13T11:27:52.148Z,986.07
2023-01-13T11:28:53.792Z,986.17
2023-01-13T11:29:55.544Z,986.14
2023-01-13T11:30:57.309Z,986.17
2023-01-13T11:31:59.010Z,986.17
2023-01-13T11:33:01.011Z,986.13
2023-01-13T11:34:02.492Z,986.24
2023-01-13T11:35:04.189Z,986.15
2023-01-13T11:36:05.929Z,986.23
2023-01-13T11:37:07.675Z,986.23
2023-01-13T11:38:09.442Z,986.1
2023-01-13T11:39:11.137Z,986.18
2023-01-13T11:40:12.862Z,986.11
2023-01-13T11:41:14.648Z,986.18
2023-01-13T11:42:16.337Z,986.21
2023-01-13T11:43:18.127Z,986.2
2023-01-13T11:44:19.810Z,986.22
2023-01-13T11:45:21.578Z,986.25
2023-01-13T11:46:23.373Z,986.31
2023-01-13T11:47:25.010Z,986.22
2023-01-13T11:48:26.780Z,986.14
2023-01-13T11:49:34.365Z,986.19
2023-01-13T11:50:36.122Z,986.23
2023-01-13T11:51:37.834Z,986.27
2023-01-13T11:52:44.821Z,986.2
2023-01-13T11:53:46.469Z,986.27
2023-01-13T11:54:48.195Z,986.24
2023-01-13T11:55:49.927Z,986.23
2023-01-13T11:56:51.645Z,986.18
2023-01-13T11:57:53.397Z,986.15
2023-01-13T11:58:55.152Z,986.18
2023-01-13T11:59:56.840Z,986.18
2023-01-13T12:00:58.622Z,986.12
2023-01-13T12:02:00.423Z,986.21
2023-01-13T12:03:02.116Z,986.23
2023-01-13T12:04:03.807Z,986.17
2023-01-13T12:05:05.512Z,986.2
2023-01-13T12:06:07.239Z,986.26
2023-01-13T12:07:09.000Z,986.25
2023-01-13T12:08:10.728Z,986.25
2023-01-13T12:09:12.497Z,986.24
2023-01-13T12:10:21.599Z,986.17
2023-01-13T12:11:25.082Z,986.2
2023-01-13T12:12:26.800Z,986.15
2023-01-13T12:13:28.570Z,986.12
2023-01-13T12:14:30.288Z,986.14
2023-01-13T12:15:32.076Z,986.13
2023-01-13T12:16:33.995Z,986.11
2023-01-13T12:17:35.535Z,986.13
2023-01-13T12:18:37.250Z,986.11
2023-01-13T12:19:38.995Z,986.11
2023-01-13T12:20:40.779Z,986.01
2023-01-13T12:21:42.487Z,986.01
2023-01-13T12:22:44.228Z,986.01
2023-01-13T12:23:45.964Z,985.96
2023-01-13T12:24:47.650Z,985.99
2023-01-13T12:25:49.411Z,985.95
2023-01-13T12:26:51.148Z,985.92
2023-01-13T12:28:10.324Z,985.93
2023-01-13T12:29:11.178Z,985.88
2023-01-13T12:30:13.813Z,985.92
2023-01-13T12:31:15.524Z,985.92
2023-01-13T12:32:21.412Z,986.02
2023-01-13T12:33:24.157Z,985.95
2023-01-13T12:34:25.932Z,985.94
2023-01-13T12:35:27.547Z,985.96
2023-01-13T12:36:29.263Z,985.9
2023-01-13T12:37:31.052Z,985.98
2023-01-13T12:38:34.380Z,985.96
2023-01-13T12:39:34.468Z,985.91
2023-01-13T12:40:36.244Z,985.88
2023-01-13T12:41:37.956Z,985.96
2023-01-13T12:42:39.688Z,985.92
2023-01-13T12:43:41.437Z,985.92
2023-01-13T12:44:43.137Z,985.94
2023-01-13T12:45:44.960Z,985.98
2023-01-13T12:46:46.605Z,986
2023-01-13T12:47:48.371Z,986
2023-01-13T12:48:50.103Z,986.02
2023-01-13T12:49:51.858Z,985.99
2023-01-13T12:50:53.540Z,986
2023-01-13T12:53:41.750Z,986.02
2023-01-13T12:56:08.384Z,986.14
2023-01-13T12:57:10.106Z,986.14
2023-01-13T12:58:11.831Z,986.13
2023-01-13T12:59:13.543Z,986.13
2023-01-13T13:00:15.292Z,986.12
2023-01-13T13:01:17.184Z,986.06
2023-01-13T13:02:19.005Z,986.1
2023-01-13T13:03:20.481Z,986.01